Flight Track Log - Related Links

Times and Time Zones

All times are in EDT time to prevent confusion due to time zone crossing. See the JBU1329 flight status page for this flight to view local times or setup timezone preferences in your user account.

Time Position Orientation Groundspeed Altitude Reporting Facility
EDT Latitude Longitude Course Direction KTS MPH feet Rate Location/Type
Mon 08:21:24 42.3667 -70.9833 240° Southwest 148 170 500  Level KA90
Mon 08:22:24 42.3667 -70.9167 90° East 181 208 2,800 2,474 Climbing KA90
Mon 08:23:18 42.3833 -70.8500 71° East 234 269 5,200 3,020 Climbing KA90
Mon 08:24:00 42.3076 -70.7182 172° South  Level FlightAware Approximate
Mon 08:24:51 42.3606 -70.7289 104° East 263 303 10,200  Level Boston Center
Mon 08:25:00 42.2436 -70.8013 228° Southwest  Level FlightAware Approximate
Mon 08:25:51 42.2750 -70.7342 183° South 229 264 12,400  Level Boston Center
Mon 08:26:00 42.1949 -70.9063 240° Southwest  Level FlightAware Approximate
Mon 08:26:51 42.2244 -70.8419 238° Southwest 231 266 16,000  Level Boston Center
Mon 08:27:51 42.2033 -70.9828 259° West 298 343 18,400 2,500 Climbing Boston Center
Mon 08:28:51 42.1883 -71.1092 261° West 341 392 21,000 2,450 Climbing Boston Center
Mon 08:29:51 42.1689 -71.2411 259° West 359 413 23,300 2,100 Climbing Boston Center
Mon 08:30:51 42.1244 -71.3653 244° Southwest 369 425 25,200 2,100 Climbing Boston Center
Mon 08:31:51 42.0775 -71.4919 244° Southwest 374 430 27,500 2,600 Climbing Boston Center
Mon 08:32:51 42.0286 -71.6156 242° Southwest 379 436 30,400 2,200 Climbing Boston Center
Mon 08:33:51 41.9856 -71.7308 243° Southwest 367 422 31,900 800 Climbing Boston Center
Mon 08:34:51 41.9383 -71.8569 243° Southwest 372 428 32,000 50 Climbing Boston Center
Mon 08:35:51 41.8931 -71.9828 244° Southwest 372 428 32,000  Level Boston Center
Mon 08:36:51 41.8433 -72.1114 243° Southwest 367 422 32,000  Level Boston Center
Mon 08:37:51 41.7978 -72.2311 243° Southwest 367 422 32,000  Level Boston Center
Mon 08:39:03 41.7542 -72.3511 244° Southwest 367 422 32,000  Level Boston Center
Mon 08:40:03 41.6981 -72.4956 243° Southwest 367 422 32,000  Level Boston Center
Mon 08:41:03 41.6542 -72.6150 244° Southwest 367 422 32,000  Level Boston Center
Mon 08:42:03 41.6103 -72.7344 244° Southwest 367 422 32,000  Level Boston Center
Mon 08:43:03 41.5661 -72.8453 242° Southwest 357 411 32,000  Level Boston Center
Mon 08:44:03 41.5303 -72.9364 242° Southwest 340 391 32,000  Level Boston Center
Mon 08:45:03 41.4817 -73.0664 244° Southwest 340 391 32,000  Level Boston Center
Mon 08:46:03 41.4372 -73.1878 244° Southwest 356 410 32,000  Level Boston Center
Mon 08:47:03 41.3883 -73.3089 242° Southwest 361 415 32,000  Level Boston Center
Mon 08:49:05 41.3000 -73.5356 243° Southwest 360 414 32,000  Level New York Center
Mon 08:50:03 41.2389 -73.6600 237° Southwest 371 427 32,000  Level New York Center
Mon 08:51:03 41.1736 -73.7675 231° Southwest 380 437 32,000  Level New York Center
Mon 08:52:04 41.1106 -73.8692 231° Southwest 374 430 32,000  Level New York Center
Mon 08:53:03 41.0494 -73.9736 232° Southwest 369 425 32,000 -353 Level New York Center
Mon 08:54:03 40.9861 -74.0778 231° Southwest 369 425 31,300 -900 Descending New York Center
Mon 08:55:03 40.9294 -74.1686 230° Southwest 374 430 30,200 -1,317 Descending New York Center
Mon 08:56:06 40.8594 -74.2856 232° Southwest 379 436 28,600 -1,550 Descending New York Center
Mon 08:57:03 40.7981 -74.3867 231° Southwest 379 436 27,100 -1,322 Descending New York Center
Mon 08:58:04 40.7364 -74.4931 233° Southwest 374 430 26,000 -545 Descending New York Center
Mon 08:59:04 40.6728 -74.5936 230° Southwest 369 425 26,000 -50 Level New York Center
Mon 09:00:05 40.6086 -74.7019 232° Southwest 369 425 25,900 -793 Descending New York Center
Mon 09:01:05 40.5428 -74.8019 229° Southwest 369 425 24,400 -1,650 Descending New York Center
Mon 09:02:05 40.4661 -74.9067 226° Southwest 369 425 22,600 -1,650 Descending New York Center
Mon 09:03:05 40.3981 -75.0033 227° Southwest 364 419 21,100 -1,450 Descending New York Center
Mon 09:04:05 40.3322 -75.0972 227° Southwest 359 413 19,700 -1,424 Descending New York Center
Mon 09:05:03 40.2661 -75.1911 227° Southwest 359 413 18,300 -864 Descending New York Center
Mon 09:06:03 40.1961 -75.2844 226° Southwest 359 413 18,000 -150 Descending New York Center
Mon 09:07:03 40.1364 -75.3703 228° Southwest 359 413 18,000  Level New York Center
Mon 09:08:04 40.0636 -75.4686 226° Southwest 359 413 18,000  Level New York Center
Mon 09:09:05 40.0039 -75.5539 228° Southwest 359 413 18,000  Level New York Center
Mon 09:10:03 39.9289 -75.6544 226° Southwest 359 413 18,000  Level New York Center
Mon 09:11:05 39.8772 -75.7481 234° Southwest 359 413 18,000 -492 Level New York Center
Mon 09:12:05 39.8294 -75.8419 236° Southwest 364 419 17,000 -1,602 Descending New York Center
Mon 09:14:31 39.7000 -76.0833 235° Southwest 282 325 12,500 -1,493 Descending Potomac TRACON
Mon 09:15:26 39.6667 -76.1667 243° Southwest 282 325 12,000 -991 Descending Potomac TRACON
Mon 09:16:26 39.6167 -76.2500 232° Southwest 274 315 10,600 -1,579 Descending Potomac TRACON
Mon 09:17:20 39.5833 -76.3167 237° Southwest 273 314 9,000 -1,400 Descending Potomac TRACON
Mon 09:18:26 39.5333 -76.4000 232° Southwest 273 314 7,800 -1,450 Descending Potomac TRACON
Mon 09:19:20 39.5000 -76.4833 243° Southwest 275 316 6,100 -1,800 Descending Potomac TRACON
Mon 09:20:26 39.4500 -76.5833 237° Southwest 275 316 4,200 -1,000 Descending Potomac TRACON
Mon 09:21:26 39.4167 -76.6667 243° Southwest 275 316 4,000 -111 Descending Potomac TRACON
Mon 09:22:14 39.3833 -76.7333 237° Southwest 275 316 4,000  Level Potomac TRACON
Mon 09:23:20 39.3333 -76.8167 232° Southwest 272 313 4,000 -250 Level Potomac TRACON
Mon 09:24:14 39.2833 -76.8667 218° Southwest 260 299 3,500 -684 Descending Potomac TRACON
Mon 09:25:14 39.2167 -76.9000 201° Southwest 236 272 2,700 -789 Descending Potomac TRACON
Mon 09:26:08 39.1833 -76.8667 142° Southeast 225 259 2,000 -365 Descending Potomac TRACON
Mon 09:27:09 39.1833 -76.8167 90° East 164 189 2,000 -300 Level Potomac TRACON
Mon 09:28:08 39.1833 -76.7667 90° East 116 133 1,400 -632 Descending Potomac TRACON
Mon 09:29:03 39.1833 -76.7333 90° East 118 136 800 -655 Descending Potomac TRACON

Login

Don't have an account? Register now (free) for customized features, flight alerts, and more!